Time;durP1;ratioP1;P1;durP2;ratioP2;P2;SDS_P1;SDS_P2;PMS_P1;PMS_P2;Temp;Humidity;BMP_temperature;BMP_pressure;BME280_temperature;BME280_humidity;BME280_pressure;Samples;Min_cycle;Max_cycle;Signal;HPM_P1;HPM_P2
2021/10/27 00:01:54;;;;;;;13.77;12.32;;;13.90;99.90;;;;;;5092852;28;20693;-67
2021/10/27 00:04:21;;;;;;;7.85;6.32;;;13.90;99.90;;;;;;5092169;28;20238;-67
2021/10/27 00:06:48;;;;;;;19.02;15.25;;;13.90;99.90;;;;;;5092917;28;20227;-67
2021/10/27 00:09:15;;;;;;;8.43;6.32;;;13.90;99.90;;;;;;5091633;28;20234;-67
2021/10/27 00:11:42;;;;;;;10.25;7.53;;;13.90;99.90;;;;;;5092704;28;20257;-67
2021/10/27 00:14:11;;;;;;;13.30;8.63;;;13.90;99.90;;;;;;5078631;28;20223;-67
2021/10/27 00:16:38;;;;;;;6.72;6.03;;;13.90;99.90;;;;;;5086239;28;20461;-67
2021/10/27 00:19:05;;;;;;;10.75;9.70;;;14.00;99.90;;;;;;5086537;28;20242;-67
2021/10/27 00:21:32;;;;;;;15.15;11.10;;;13.90;99.90;;;;;;5084836;28;20684;-67
2021/10/27 00:23:59;;;;;;;7.03;6.07;;;14.00;99.90;;;;;;5092033;28;20676;-67
2021/10/27 00:26:25;;;;;;;6.87;6.13;;;14.00;99.90;;;;;;5091994;28;20749;-67
2021/10/27 00:28:52;;;;;;;7.15;5.07;;;13.90;99.90;;;;;;5092298;28;20481;-67
2021/10/27 00:31:21;;;;;;;8.18;5.43;;;13.90;99.90;;;;;;5091964;28;20223;-67
2021/10/27 00:33:48;;;;;;;8.63;6.70;;;13.90;99.90;;;;;;5092570;28;20241;-67
2021/10/27 00:36:15;;;;;;;9.68;7.43;;;13.90;99.90;;;;;;5092270;28;20577;-68
2021/10/27 00:38:42;;;;;;;7.50;6.38;;;13.80;99.90;;;;;;5091793;28;20290;-67
2021/10/27 00:41:10;;;;;;;8.43;7.03;;;13.80;99.90;;;;;;5092467;28;20219;-67
2021/10/27 00:43:38;;;;;;;4.97;4.57;;;13.80;99.90;;;;;;5091681;28;20226;-67
2021/10/27 00:46:06;;;;;;;5.72;5.15;;;13.80;99.90;;;;;;5092355;28;20242;-67
2021/10/27 00:48:37;;;;;;;4.72;4.28;;;13.80;99.90;;;;;;5091803;28;20219;-67
2021/10/27 00:51:04;;;;;;;13.23;6.25;;;13.70;99.90;;;;;;5092246;28;20696;-67
2021/10/27 00:53:31;;;;;;;7.57;6.03;;;13.70;99.90;;;;;;5091430;28;20242;-67
2021/10/27 00:55:58;;;;;;;6.50;5.85;;;13.80;99.90;;;;;;5092301;28;20242;-67
2021/10/27 00:58:26;;;;;;;7.45;6.18;;;13.70;99.90;;;;;;5091533;28;20230;-67
2021/10/27 01:00:52;;;;;;;9.18;7.13;;;13.70;99.90;;;;;;5091895;28;20238;-67
2021/10/27 01:03:20;;;;;;;11.85;9.85;;;13.70;99.90;;;;;;5091741;28;20619;-67
2021/10/27 01:05:48;;;;;;;8.02;7.25;;;13.80;99.90;;;;;;5092292;28;20223;-67
2021/10/27 01:08:15;;;;;;;6.97;4.75;;;13.80;99.90;;;;;;5092021;28;20222;-67
2021/10/27 01:10:42;;;;;;;5.20;4.75;;;13.80;99.90;;;;;;5091638;28;20238;-67
2021/10/27 01:13:09;;;;;;;9.05;7.00;;;13.70;99.90;;;;;;5091762;28;20243;-67
2021/10/27 01:15:39;;;;;;;9.48;8.68;;;13.70;99.90;;;;;;5091540;28;20227;-67
2021/10/27 01:18:07;;;;;;;18.55;14.55;;;13.70;99.90;;;;;;5091737;28;20305;-67
2021/10/27 01:20:36;;;;;;;7.15;6.45;;;13.80;99.90;;;;;;5085907;28;20624;-67
2021/10/27 01:23:03;;;;;;;14.32;12.82;;;13.80;99.90;;;;;;5095682;28;20215;-67
2021/10/27 01:25:30;;;;;;;5.80;5.20;;;13.80;99.90;;;;;;5095071;28;20254;-67
2021/10/27 01:27:57;;;;;;;10.75;8.80;;;13.70;99.90;;;;;;5095506;28;20234;-67
2021/10/27 01:30:25;;;;;;;5.30;4.75;;;13.70;99.90;;;;;;5094875;28;20298;-67
2021/10/27 01:32:53;;;;;;;8.00;6.88;;;13.70;99.90;;;;;;5095330;28;20227;-67
2021/10/27 01:35:20;;;;;;;10.82;9.68;;;13.70;99.90;;;;;;5095421;28;20231;-67
2021/10/27 01:37:48;;;;;;;13.38;10.77;;;13.70;99.90;;;;;;5091931;28;20223;-67
2021/10/27 01:40:17;;;;;;;12.05;9.90;;;13.70;99.90;;;;;;5093039;28;20226;-67
2021/10/27 01:42:44;;;;;;;10.57;9.25;;;13.70;99.90;;;;;;5094247;28;20250;-67
2021/10/27 01:45:12;;;;;;;6.85;5.35;;;13.70;99.90;;;;;;5093568;28;20680;-67
2021/10/27 01:47:42;;;;;;;5.57;5.05;;;13.70;99.90;;;;;;5080734;28;20270;-67
2021/10/27 01:50:10;;;;;;;6.57;5.47;;;13.70;99.90;;;;;;5093791;28;20576;-67
2021/10/27 01:52:37;;;;;;;6.45;5.78;;;13.70;99.90;;;;;;5093467;28;20363;-67
2021/10/27 01:55:07;;;;;;;8.20;7.38;;;13.70;99.90;;;;;;5093711;28;20223;-67
2021/10/27 01:57:34;;;;;;;17.95;12.63;;;13.70;99.90;;;;;;5093592;28;20226;-67
2021/10/27 02:00:01;;;;;;;4.90;4.43;;;13.70;99.90;;;;;;5094313;28;20224;-67
2021/10/27 02:02:29;;;;;;;5.00;4.60;;;13.70;99.90;;;;;;5094192;28;20273;-67
2021/10/27 02:04:56;;;;;;;6.28;5.65;;;13.70;99.90;;;;;;5093638;28;20229;-67
2021/10/27 02:07:26;;;;;;;8.50;6.68;;;13.70;99.90;;;;;;5094910;28;20723;-67
2021/10/27 02:09:52;;;;;;;6.30;5.30;;;13.70;99.90;;;;;;5094329;28;20772;-67
2021/10/27 02:12:21;;;;;;;3.80;3.40;;;13.70;99.90;;;;;;5094872;28;20226;-67
2021/10/27 02:14:48;;;;;;;7.05;6.35;;;13.60;99.90;;;;;;5090178;28;20687;-67
2021/10/27 02:17:17;;;;;;;7.13;6.47;;;13.60;99.90;;;;;;5094562;28;20230;-67
2021/10/27 02:19:45;;;;;;;6.38;4.57;;;13.60;99.90;;;;;;5089176;28;20710;-67
2021/10/27 02:22:12;;;;;;;10.80;7.90;;;13.60;99.90;;;;;;5092438;28;20219;-67
2021/10/27 02:24:39;;;;;;;9.05;8.07;;;13.60;99.90;;;;;;5093844;28;20239;-67
2021/10/27 02:27:07;;;;;;;7.50;6.80;;;13.60;99.90;;;;;;5090317;28;20234;-67
2021/10/27 02:29:35;;;;;;;7.88;6.32;;;13.70;99.90;;;;;;5091164;28;20227;-68
2021/10/27 02:32:03;;;;;;;10.32;7.13;;;13.70;99.90;;;;;;5093253;28;20243;-67
2021/10/27 02:34:30;;;;;;;6.65;4.68;;;13.70;99.90;;;;;;5092790;28;20224;-67
2021/10/27 02:36:57;;;;;;;8.48;6.63;;;13.70;99.90;;;;;;5094349;28;20223;-67
2021/10/27 02:39:24;;;;;;;6.35;5.85;;;13.60;99.90;;;;;;5094263;28;20292;-67
2021/10/27 02:41:51;;;;;;;6.00;5.40;;;13.70;99.90;;;;;;5093892;28;20223;-67
2021/10/27 02:44:18;;;;;;;5.80;5.30;;;13.70;99.90;;;;;;5094490;28;20219;-67
2021/10/27 02:46:47;;;;;;;7.60;5.80;;;13.70;99.90;;;;;;5093836;28;20712;-67
2021/10/27 02:49:14;;;;;;;15.27;13.63;;;13.70;99.90;;;;;;5094126;28;20242;-67
2021/10/27 02:51:41;;;;;;;8.05;7.22;;;13.70;99.90;;;;;;5093865;28;20708;-67
2021/10/27 02:54:08;;;;;;;7.23;6.70;;;13.70;99.90;;;;;;5094211;28;20219;-67
2021/10/27 02:56:35;;;;;;;9.07;7.40;;;13.70;99.90;;;;;;5093878;28;21021;-67
2021/10/27 02:59:02;;;;;;;6.68;5.32;;;13.70;99.90;;;;;;5093991;28;20499;-67
2021/10/27 03:01:29;;;;;;;6.40;5.80;;;13.60;99.90;;;;;;5093994;28;20657;-68
2021/10/27 03:03:57;;;;;;;13.77;11.30;;;13.70;99.90;;;;;;5093882;28;21015;-67
2021/10/27 03:06:24;;;;;;;13.75;9.00;;;13.80;99.90;;;;;;5094107;28;20226;-67
2021/10/27 03:08:51;;;;;;;12.18;7.55;;;13.80;99.90;;;;;;5093458;28;20227;-67
2021/10/27 03:11:19;;;;;;;28.33;20.75;;;13.80;99.90;;;;;;5093955;28;20270;-67
2021/10/27 03:13:46;;;;;;;7.32;5.75;;;13.70;99.90;;;;;;5093273;28;20227;-67
2021/10/27 03:16:13;;;;;;;12.30;10.35;;;13.80;99.90;;;;;;5093933;28;20220;-67
2021/10/27 03:18:40;;;;;;;5.57;5.07;;;13.70;99.90;;;;;;5093315;28;20219;-67
2021/10/27 03:21:08;;;;;;;19.17;12.65;;;13.70;99.90;;;;;;5093566;28;20538;-67
2021/10/27 03:23:35;;;;;;;8.77;7.35;;;13.70;99.90;;;;;;5093199;28;20215;-67
2021/10/27 03:26:02;;;;;;;12.73;10.50;;;13.70;99.90;;;;;;5093697;28;20231;-67
2021/10/27 03:28:29;;;;;;;6.85;6.20;;;13.70;99.90;;;;;;5093377;28;20223;-67
2021/10/27 03:30:56;;;;;;;6.50;5.95;;;13.70;99.90;;;;;;5095605;28;20219;-67
2021/10/27 03:33:23;;;;;;;10.43;8.05;;;13.70;99.90;;;;;;5113653;28;20238;-67
2021/10/27 03:35:51;;;;;;;6.65;6.15;;;13.70;99.90;;;;;;5113361;27;20229;-67
2021/10/27 03:38:19;;;;;;;17.20;13.45;;;13.80;99.90;;;;;;5108182;28;20580;-67
2021/10/27 03:40:46;;;;;;;9.95;8.52;;;13.80;99.90;;;;;;5092042;28;20223;-67
2021/10/27 03:43:15;;;;;;;9.95;7.03;;;13.70;99.90;;;;;;5092565;28;20247;-67
2021/10/27 03:45:42;;;;;;;6.20;4.95;;;13.70;99.90;;;;;;5091281;28;20302;-67
2021/10/27 03:48:09;;;;;;;8.18;7.00;;;13.70;99.90;;;;;;5091980;28;20220;-67
2021/10/27 03:50:36;;;;;;;6.18;5.60;;;13.70;99.90;;;;;;5091368;28;20237;-67
2021/10/27 03:53:04;;;;;;;5.22;4.72;;;13.60;99.90;;;;;;5091225;28;20234;-67
2021/10/27 03:55:32;;;;;;;6.57;5.78;;;13.60;99.90;;;;;;5087085;28;20254;-67
2021/10/27 03:58:01;;;;;;;8.13;7.32;;;13.60;99.90;;;;;;5091217;28;20224;-67
2021/10/27 04:00:28;;;;;;;14.20;10.40;;;13.60;99.90;;;;;;5092123;28;20241;-67
2021/10/27 04:02:56;;;;;;;6.28;5.68;;;13.60;99.90;;;;;;5082455;28;20268;-67
2021/10/27 04:05:23;;;;;;;8.80;7.80;;;13.60;99.90;;;;;;5092898;28;20222;-67
2021/10/27 04:07:50;;;;;;;6.80;6.10;;;13.60;99.90;;;;;;5092528;28;20231;-67
2021/10/27 04:10:17;;;;;;;6.65;5.57;;;13.60;99.90;;;;;;5092526;28;20231;-67
2021/10/27 04:12:45;;;;;;;7.68;6.85;;;13.60;99.90;;;;;;5092370;28;20242;-67
2021/10/27 04:15:13;;;;;;;9.30;7.65;;;13.60;99.90;;;;;;5092622;28;20220;-67
2021/10/27 04:17:41;;;;;;;17.95;12.23;;;13.60;99.90;;;;;;5092331;28;20247;-67
2021/10/27 04:20:10;;;;;;;7.50;5.40;;;13.60;99.90;;;;;;5092767;28;20623;-67
2021/10/27 04:22:40;;;;;;;13.32;10.35;;;13.60;99.90;;;;;;5092419;28;20611;-67
2021/10/27 04:25:09;;;;;;;6.22;5.60;;;13.60;99.90;;;;;;5092396;28;20234;-67
2021/10/27 04:27:36;;;;;;;6.23;5.63;;;13.60;99.90;;;;;;5092622;28;20554;-67
2021/10/27 04:30:07;;;;;;;9.07;5.57;;;13.60;99.90;;;;;;5092011;28;20462;-67
2021/10/27 04:32:35;;;;;;;7.32;6.38;;;13.60;99.90;;;;;;5091637;28;20568;-67
2021/10/27 04:35:02;;;;;;;6.47;5.68;;;13.60;99.90;;;;;;5090348;28;20292;-67
2021/10/27 04:37:33;;;;;;;11.57;10.05;;;13.60;99.90;;;;;;5090891;28;20229;-67
2021/10/27 04:40:00;;;;;;;7.78;5.05;;;13.60;99.90;;;;;;5089859;28;20256;-68
2021/10/27 04:42:27;;;;;;;8.45;5.35;;;13.60;99.90;;;;;;5090317;28;20215;-66
2021/10/27 04:44:54;;;;;;;7.65;5.90;;;13.60;99.90;;;;;;5090108;28;20238;-67
2021/10/27 04:47:22;;;;;;;6.13;5.50;;;13.60;99.90;;;;;;5091268;28;20222;-68
2021/10/27 04:49:49;;;;;;;5.97;5.30;;;13.60;99.90;;;;;;5091882;28;20603;-68
2021/10/27 04:52:16;;;;;;;8.80;7.90;;;13.60;99.90;;;;;;5092330;28;20678;-69
2021/10/27 04:54:43;;;;;;;6.95;5.55;;;13.60;99.90;;;;;;5094312;28;20235;-66
2021/10/27 04:57:10;;;;;;;8.40;5.95;;;13.60;99.90;;;;;;5096371;28;20257;-68
2021/10/27 04:59:46;;;;;;;6.60;5.05;;;13.60;99.90;;;;;;5096135;28;20236;-68
2021/10/27 05:02:15;;;;;;;7.93;7.10;;;13.60;99.90;;;;;;5095750;28;20985;-67
2021/10/27 05:04:44;;;;;;;10.77;7.25;;;13.60;99.90;;;;;;5096148;28;20696;-67
2021/10/27 05:07:14;;;;;;;11.35;5.47;;;13.60;99.90;;;;;;5095618;28;20212;-67
2021/10/27 05:09:42;;;;;;;8.82;6.88;;;13.60;99.90;;;;;;5095816;28;20227;-68
2021/10/27 05:12:10;;;;;;;5.30;4.90;;;13.60;99.90;;;;;;5095503;28;20284;-67
2021/10/27 05:14:38;;;;;;;5.45;4.90;;;13.60;99.90;;;;;;5096145;28;20227;-67
2021/10/27 05:17:09;;;;;;;5.78;5.25;;;13.60;99.90;;;;;;5095381;28;20257;-66
2021/10/27 05:19:36;;;;;;;6.30;5.63;;;13.70;99.90;;;;;;5095818;28;20228;-67
2021/10/27 05:22:05;;;;;;;6.32;4.88;;;13.70;99.90;;;;;;5095455;28;20242;-67
2021/10/27 05:24:31;;;;;;;5.80;5.30;;;13.70;99.90;;;;;;5095839;28;20615;-67
2021/10/27 05:26:58;;;;;;;5.55;5.05;;;13.60;99.90;;;;;;5095152;28;20584;-67
2021/10/27 05:29:25;;;;;;;9.63;6.70;;;13.60;99.90;;;;;;5095498;28;20313;-67
2021/10/27 05:31:52;;;;;;;11.68;7.30;;;13.60;99.90;;;;;;5094950;28;20541;-67
2021/10/27 05:34:20;;;;;;;6.97;6.30;;;13.60;99.90;;;;;;5095409;28;20223;-67
2021/10/27 05:36:47;;;;;;;8.75;5.82;;;13.60;99.90;;;;;;5095581;28;20238;-67
2021/10/27 05:39:15;;;;;;;5.43;4.47;;;13.60;99.90;;;;;;5095046;28;20231;-67
2021/10/27 05:41:44;;;;;;;10.20;6.20;;;13.50;99.90;;;;;;5095262;28;20568;-67
2021/10/27 05:44:11;;;;;;;13.50;9.90;;;13.50;99.90;;;;;;5094740;28;20222;-67
2021/10/27 05:46:39;;;;;;;11.98;9.70;;;13.50;99.90;;;;;;5081909;28;20302;-67
2021/10/27 05:49:12;;;;;;;13.02;11.52;;;13.50;99.90;;;;;;5094705;28;20233;-67
2021/10/27 05:51:44;;;;;;;6.25;5.35;;;13.60;99.90;;;;;;5083098;28;20223;-67
2021/10/27 05:56:56;;;;;;;5.43;4.93;;;13.60;99.90;;;;;;5094974;28;20234;-68
2021/10/27 05:59:23;;;;;;;9.13;7.55;;;13.60;99.90;;;;;;5094754;28;20226;-67
2021/10/27 06:01:51;;;;;;;9.13;6.05;;;13.60;99.90;;;;;;5095202;28;20236;-67
2021/10/27 06:04:18;;;;;;;7.00;6.15;;;13.70;99.90;;;;;;5094729;28;20334;-68
2021/10/27 06:06:45;;;;;;;12.93;11.27;;;13.70;99.90;;;;;;5094384;28;20773;-67
2021/10/27 06:09:13;;;;;;;12.10;9.77;;;13.70;99.90;;;;;;5094458;28;20261;-67
2021/10/27 06:11:40;;;;;;;15.23;13.10;;;13.70;99.90;;;;;;5095114;28;20244;-67
2021/10/27 06:14:08;;;;;;;7.65;6.05;;;13.70;99.90;;;;;;5094350;28;20223;-67
2021/10/27 06:16:35;;;;;;;8.45;4.68;;;13.70;99.90;;;;;;5094953;28;20598;-67
2021/10/27 06:19:02;;;;;;;5.47;4.88;;;13.60;99.90;;;;;;5094204;28;20681;-67
2021/10/27 06:21:29;;;;;;;6.55;4.68;;;13.60;99.90;;;;;;5094753;28;20661;-67
2021/10/27 06:23:56;;;;;;;7.90;5.97;;;13.60;99.90;;;;;;5094213;28;20227;-67
2021/10/27 06:26:24;;;;;;;9.30;7.60;;;13.70;99.90;;;;;;5094556;28;20240;-67
2021/10/27 06:29:00;;;;;;;6.55;4.90;;;13.70;99.90;;;;;;5094238;28;20241;-67
2021/10/27 06:31:35;;;;;;;7.27;5.30;;;13.70;99.90;;;;;;5094041;28;20210;-67
2021/10/27 06:34:15;;;;;;;6.82;4.75;;;13.80;99.90;;;;;;5094419;28;20468;-67
2021/10/27 06:36:56;;;;;;;11.70;9.27;;;13.70;99.90;;;;;;5094781;28;20225;-67
2021/10/27 06:45:54;;;;;;;10.93;9.88;;;13.80;99.90;;;;;;5094325;28;20219;-67
2021/10/27 06:47:50;;;;;;;10.45;9.45;;;13.90;99.90;;;;;;5094285;28;20250;-68
2021/10/27 06:50:17;;;;;;;9.93;7.82;;;13.90;99.90;;;;;;5093458;28;20242;-67
2021/10/27 06:52:44;;;;;;;9.32;6.55;;;13.90;99.90;;;;;;5094120;28;20227;-67
2021/10/27 06:55:11;;;;;;;5.57;5.00;;;13.90;99.90;;;;;;5093508;28;20725;-67
2021/10/27 06:57:38;;;;;;;13.15;6.70;;;14.00;99.90;;;;;;5093923;28;20231;-67
2021/10/27 07:00:15;;;;;;;6.57;4.80;;;14.00;99.90;;;;;;5093408;28;20267;-67
2021/10/27 07:05:50;;;;;;;5.85;5.18;;;14.00;99.90;;;;;;5093541;28;20284;-67
2021/10/27 07:16:30;;;;;;;12.85;8.43;;;14.00;99.90;;;;;;5093485;28;20250;-67
2021/10/27 07:18:56;;;;;;;13.73;8.20;;;13.90;99.90;;;;;;5092532;28;20223;-67
2021/10/27 07:21:25;;;;;;;6.77;5.73;;;13.90;99.90;;;;;;5093590;28;20580;-67
2021/10/27 07:23:52;;;;;;;10.40;6.50;;;14.00;99.90;;;;;;5093003;28;20465;-68
2021/10/27 07:26:19;;;;;;;6.30;5.05;;;14.00;99.90;;;;;;5093380;28;20639;-67
2021/10/27 07:28:48;;;;;;;5.53;4.72;;;14.10;99.90;;;;;;5093078;28;20696;-67
2021/10/27 07:31:16;;;;;;;8.83;4.60;;;14.10;99.90;;;;;;5092949;28;20246;-67
2021/10/27 07:33:50;;;;;;;6.80;4.47;;;14.10;99.90;;;;;;5092793;28;20804;-67
2021/10/27 07:36:30;;;;;;;11.40;6.43;;;14.10;99.90;;;;;;5093102;28;20561;-67
2021/10/27 07:41:42;;;;;;;6.05;5.13;;;14.20;99.90;;;;;;5092809;28;20238;-67
2021/10/27 07:44:16;;;;;;;5.03;4.53;;;14.30;99.90;;;;;;5092606;28;20222;-67
2021/10/27 07:46:43;;;;;;;12.02;7.10;;;14.30;99.90;;;;;;5092227;28;20838;-68
2021/10/27 07:49:10;;;;;;;6.90;5.63;;;14.40;99.90;;;;;;5092350;28;20224;-68
2021/10/27 07:51:37;;;;;;;4.90;4.13;;;14.40;99.90;;;;;;5092742;28;20472;-67
2021/10/27 07:54:06;;;;;;;7.23;5.67;;;14.50;99.90;;;;;;5093101;28;20468;-68
2021/10/27 07:56:33;;;;;;;5.40;4.30;;;14.50;99.90;;;;;;5092729;28;20496;-68
2021/10/27 07:59:01;;;;;;;8.37;4.87;;;14.60;99.90;;;;;;5093076;28;20469;-68
2021/10/27 08:01:28;;;;;;;6.40;5.40;;;14.60;99.90;;;;;;5092931;28;20461;-67
2021/10/27 08:03:55;;;;;;;4.23;3.83;;;14.70;99.90;;;;;;5092385;28;20471;-67
2021/10/27 08:06:22;;;;;;;5.10;3.90;;;14.70;99.90;;;;;;5092911;28;20528;-66
2021/10/27 08:08:49;;;;;;;10.90;6.37;;;14.80;99.90;;;;;;5092537;28;20473;-68
2021/10/27 08:11:18;;;;;;;23.63;15.50;;;14.80;99.90;;;;;;5093141;28;20465;-68
2021/10/27 08:13:45;;;;;;;15.47;10.60;;;14.80;99.90;;;;;;5092603;28;20469;-68
2021/10/27 08:16:12;;;;;;;7.77;6.50;;;14.90;99.90;;;;;;5092927;28;20469;-68
2021/10/27 08:18:39;;;;;;;11.83;7.57;;;15.00;99.90;;;;;;5092175;28;20465;-68
2021/10/27 08:21:07;;;;;;;7.90;6.87;;;15.10;99.90;;;;;;5092681;28;20473;-67
2021/10/27 08:23:38;;;;;;;8.10;7.13;;;15.10;99.90;;;;;;5092891;28;20462;-67
2021/10/27 08:26:08;;;;;;;6.17;5.60;;;15.20;99.90;;;;;;5092446;28;20450;-67
2021/10/27 08:28:41;;;;;;;8.23;5.70;;;15.30;99.90;;;;;;5093128;28;20549;-67
2021/10/27 08:31:14;;;;;;;7.33;4.40;;;15.30;99.90;;;;;;5100591;28;21243;-67
2021/10/27 08:34:01;;;;;;;5.10;3.50;;;15.30;99.90;;;;;;5102141;28;20462;-67
2021/10/27 08:36:28;;;;;;;4.40;3.47;;;15.40;99.90;;;;;;5096722;28;20476;-67
2021/10/27 08:38:56;;;;;;;4.47;3.10;;;15.50;99.90;;;;;;5096650;28;20784;-68
2021/10/27 08:41:22;;;;;;;7.77;6.53;;;15.50;99.90;;;;;;5096651;28;20995;-68
2021/10/27 08:43:51;;;;;;;10.20;9.20;;;15.60;99.90;;;;;;5096288;28;21244;-67
2021/10/27 08:46:19;;;;;;;8.57;7.67;;;15.60;99.90;;;;;;5096463;28;20464;-67
2021/10/27 08:48:52;;;;;;;13.20;10.60;;;15.60;99.90;;;;;;5096095;28;20465;-68
2021/10/27 08:51:19;;;;;;;5.77;5.17;;;15.60;99.90;;;;;;5096772;28;21033;-68
2021/10/27 08:53:47;;;;;;;7.30;4.90;;;15.70;99.90;;;;;;5096074;28;20759;-68
2021/10/27 08:56:14;;;;;;;6.70;4.73;;;15.70;99.90;;;;;;5096244;28;20476;-68
2021/10/27 08:58:41;;;;;;;12.43;6.43;;;15.70;99.90;;;;;;5096068;28;20971;-68
2021/10/27 09:01:14;;;;;;;9.30;6.47;;;15.70;99.90;;;;;;5096217;28;20531;-68
2021/10/27 09:04:06;;;;;;;7.43;5.97;;;15.80;99.90;;;;;;5095889;28;20469;-68
2021/10/27 09:06:37;;;;;;;9.43;7.40;;;15.80;99.90;;;;;;5095791;28;20465;-68
2021/10/27 09:09:25;;;;;;;4.30;4.00;;;15.80;99.90;;;;;;5095945;28;20465;-68
2021/10/27 09:15:22;;;;;;;11.77;9.40;;;15.80;99.90;;;;;;5095767;28;20451;-68
2021/10/27 09:35:11;;;;;;;10.80;6.60;;;15.90;99.90;;;;;;5099008;27;20472;-68
2021/10/27 09:38:21;;;;;;;6.90;5.80;;;16.00;99.90;;;;;;5116163;28;20804;-68
2021/10/27 09:44:01;;;;;;;8.03;5.10;;;16.10;99.90;;;;;;5063859;28;20512;-68
2021/10/27 09:47:01;;;;;;;6.23;5.20;;;16.10;99.90;;;;;;5092827;28;20465;-68
2021/10/27 09:55:47;;;;;;;7.90;4.37;;;16.30;99.90;;;;;;5032881;28;20475;-68
2021/10/27 10:04:12;;;;;;;7.57;6.30;;;16.40;99.90;;;;;;5095180;28;20518;-68
2021/10/27 10:06:40;;;;;;;8.30;5.67;;;16.50;99.90;;;;;;5094830;28;21018;-68
2021/10/27 10:09:09;;;;;;;7.80;4.87;;;16.50;99.90;;;;;;5095041;28;20472;-68
2021/10/27 10:11:38;;;;;;;9.60;5.60;;;16.60;99.90;;;;;;5095101;28;20823;-68
2021/10/27 10:14:07;;;;;;;8.70;6.30;;;16.60;99.90;;;;;;5094320;28;20465;-68
2021/10/27 10:16:40;;;;;;;11.17;6.30;;;16.60;99.90;;;;;;5094994;28;20457;-68
2021/10/27 10:19:12;;;;;;;6.00;4.57;;;16.60;99.90;;;;;;5094733;28;21259;-67
2021/10/27 10:21:42;;;;;;;5.57;3.90;;;16.70;99.90;;;;;;5094812;28;20500;-68
2021/10/27 10:24:33;;;;;;;5.10;4.30;;;16.70;99.90;;;;;;5094611;28;20454;-68
2021/10/27 10:27:04;;;;;;;4.57;4.20;;;16.70;99.90;;;;;;5094415;28;20805;-68
2021/10/27 10:29:59;;;;;;;5.53;3.70;;;16.70;99.90;;;;;;5094620;28;20480;-67
2021/10/27 10:32:40;;;;;;;5.13;4.63;;;16.70;99.90;;;;;;5103373;28;20453;-67
2021/10/27 10:35:12;;;;;;;8.20;6.20;;;16.80;99.90;;;;;;5114719;28;20484;-67
2021/10/27 10:37:46;;;;;;;5.10;3.70;;;16.80;99.90;;;;;;5114495;28;20540;-68
2021/10/27 10:40:48;;;;;;;6.07;3.57;;;16.70;99.90;;;;;;5114635;28;20544;-67
2021/10/27 10:43:51;;;;;;;5.17;3.73;;;16.70;99.90;;;;;;5102862;28;20449;-67
2021/10/27 11:00:50;;;;;;;7.17;4.53;;;16.80;99.90;;;;;;5073153;28;21124;-68
2021/10/27 11:22:14;;;;;;;8.63;4.20;;;16.80;99.90;;;;;;5093568;28;20468;-68
2021/10/27 11:37:27;;;;;;;6.37;4.87;;;16.90;99.90;;;;;;5081448;28;21291;-68
2021/10/27 11:39:55;;;;;;;5.87;4.73;;;16.90;99.90;;;;;;5092591;28;20536;-68
2021/10/27 11:42:39;;;;;;;7.10;4.30;;;16.90;99.90;;;;;;5093092;28;20501;-68
2021/10/27 11:45:23;;;;;;;7.50;4.97;;;16.90;99.90;;;;;;5090690;28;21327;-67
2021/10/27 11:47:55;;;;;;;19.73;15.00;;;16.90;99.90;;;;;;5092486;28;20466;-67
2021/10/27 11:50:23;;;;;;;5.27;4.57;;;16.80;99.90;;;;;;5092932;28;20536;-67
2021/10/27 11:52:52;;;;;;;4.10;3.63;;;16.90;99.90;;;;;;5092487;28;20462;-67
2021/10/27 11:55:21;;;;;;;3.70;3.40;;;16.90;99.90;;;;;;5092803;28;20963;-67
2021/10/27 11:57:53;;;;;;;7.53;4.30;;;16.90;99.90;;;;;;5090402;28;20954;-66
2021/10/27 12:00:31;;;;;;;6.07;4.17;;;16.90;99.90;;;;;;5088127;28;20485;-67
2021/10/27 12:03:05;;;;;;;3.87;3.27;;;16.90;99.90;;;;;;5092178;28;20485;-67
2021/10/27 12:05:39;;;;;;;4.33;2.73;;;16.90;99.90;;;;;;5092814;28;20771;-67
2021/10/27 12:13:54;;;;;;;5.10;3.20;;;16.90;99.90;;;;;;5090652;28;20484;-66
2021/10/27 12:16:58;;;;;;;3.90;3.60;;;16.90;99.90;;;;;;5089066;28;20485;-67
2021/10/27 12:19:29;;;;;;;6.10;5.50;;;16.90;99.90;;;;;;5092750;28;20467;-68
2021/10/27 12:22:00;;;;;;;8.30;6.10;;;16.90;99.90;;;;;;5092724;28;20861;-67
2021/10/27 12:24:29;;;;;;;4.70;4.30;;;16.90;99.90;;;;;;5092111;28;20554;-68
2021/10/27 12:27:01;;;;;;;8.90;7.40;;;16.90;99.90;;;;;;5092472;28;20526;-68
2021/10/27 12:29:30;;;;;;;9.70;7.60;;;16.80;99.90;;;;;;5092058;28;20461;-67
2021/10/27 12:32:06;;;;;;;8.33;7.60;;;16.80;99.90;;;;;;5085322;28;20458;-67
2021/10/27 12:34:35;;;;;;;11.83;9.70;;;16.90;99.90;;;;;;5092248;28;20495;-67
2021/10/27 12:37:24;;;;;;;7.33;5.10;;;16.90;99.90;;;;;;5092299;28;20489;-67
2021/10/27 12:39:51;;;;;;;5.20;4.77;;;16.80;99.90;;;;;;5092292;28;20465;-67
2021/10/27 12:42:18;;;;;;;5.93;4.60;;;16.80;99.90;;;;;;5092263;28;20857;-67
2021/10/27 12:44:47;;;;;;;6.20;3.23;;;16.80;99.90;;;;;;5092066;28;20461;-67
2021/10/27 12:47:17;;;;;;;8.93;6.33;;;16.70;99.90;;;;;;5092269;28;20476;-67
2021/10/27 12:49:47;;;;;;;6.97;4.30;;;16.80;99.90;;;;;;5092163;28;20465;-67
2021/10/27 12:52:29;;;;;;;7.20;5.73;;;16.70;99.90;;;;;;5092125;28;20469;-67
2021/10/27 12:55:15;;;;;;;17.57;9.90;;;16.70;99.90;;;;;;5091661;28;20469;-67
2021/10/27 12:57:49;;;;;;;6.20;5.20;;;16.70;99.90;;;;;;5092300;28;20943;-67
2021/10/27 13:00:20;;;;;;;7.10;4.77;;;16.70;99.90;;;;;;5091869;28;21331;-67
2021/10/27 13:03:01;;;;;;;6.50;4.43;;;16.80;99.90;;;;;;5092198;28;20457;-67
2021/10/27 13:05:33;;;;;;;4.87;4.47;;;16.70;99.90;;;;;;5092704;28;20468;-67
2021/10/27 13:08:07;;;;;;;8.50;7.60;;;16.70;99.90;;;;;;5091484;28;20522;-67
2021/10/27 13:10:44;;;;;;;6.63;5.73;;;16.70;99.90;;;;;;5091286;28;20476;-67
2021/10/27 13:13:28;;;;;;;7.37;6.13;;;16.70;99.90;;;;;;5091115;28;20465;-68
2021/10/27 13:16:07;;;;;;;5.80;5.27;;;16.70;99.90;;;;;;5094412;28;20461;-68
2021/10/27 13:21:40;;;;;;;9.20;6.87;;;16.70;99.90;;;;;;5094729;28;20947;-67
2021/10/27 13:29:48;;;;;;;6.50;4.70;;;16.70;99.90;;;;;;5095872;28;20487;-67
2021/10/27 13:32:17;;;;;;;7.93;5.90;;;16.70;99.90;;;;;;5095766;28;20461;-67
2021/10/27 13:34:44;;;;;;;8.97;5.60;;;16.70;99.90;;;;;;5082080;28;21232;-67
2021/10/27 13:37:13;;;;;;;8.20;4.20;;;16.70;99.90;;;;;;5095626;28;20468;-67
2021/10/27 13:39:41;;;;;;;10.07;5.50;;;16.70;99.90;;;;;;5087592;28;20528;-67
2021/10/27 13:42:15;;;;;;;12.83;5.47;;;16.60;99.90;;;;;;5089097;28;20461;-67
2021/10/27 13:44:55;;;;;;;18.13;11.97;;;16.60;99.90;;;;;;5095022;28;20465;-68
2021/10/27 13:47:36;;;;;;;7.23;3.90;;;16.70;99.90;;;;;;5081243;28;20469;-67
2021/10/27 14:06:37;;;;;;;7.00;4.67;;;16.50;99.90;;;;;;5094771;28;20480;-66
2021/10/27 14:09:13;;;;;;;16.83;10.70;;;16.50;99.90;;;;;;5084538;28;20527;-67
2021/10/27 14:11:49;;;;;;;14.70;11.60;;;16.50;99.90;;;;;;5092686;28;20465;-68
2021/10/27 14:14:21;;;;;;;14.47;12.87;;;16.50;99.90;;;;;;5094524;28;20467;-67
2021/10/27 14:39:15;;;;;;;22.90;17.27;;;16.50;99.90;;;;;;5083190;28;20496;-67
2021/10/27 15:20:34;;;;;;;5.80;5.27;;;16.30;99.90;;;;;;5093528;28;20464;-67
2021/10/27 15:23:08;;;;;;;5.87;4.20;;;16.30;99.90;;;;;;5093232;28;20532;-67
2021/10/27 15:26:03;;;;;;;4.43;4.00;;;16.30;99.90;;;;;;5093744;28;20465;-67
2021/10/27 15:28:46;;;;;;;10.80;9.20;;;16.40;99.90;;;;;;5083038;28;20540;-68
2021/10/27 15:34:19;;;;;;;7.73;6.83;;;16.40;99.90;;;;;;5084243;28;20468;-67
2021/10/27 15:42:32;;;;;;;9.63;5.97;;;16.40;99.90;;;;;;5092765;28;21012;-68
2021/10/27 15:50:45;;;;;;;7.80;5.57;;;16.40;99.90;;;;;;5072112;28;20500;-68
2021/10/27 15:53:12;;;;;;;5.13;4.63;;;16.40;99.90;;;;;;5092945;28;20466;-68
2021/10/27 15:55:39;;;;;;;4.33;3.93;;;16.50;99.90;;;;;;5092602;28;20457;-67
2021/10/27 15:58:06;;;;;;;4.70;4.30;;;16.50;99.90;;;;;;5092603;28;20497;-68
2021/10/27 16:00:38;;;;;;;9.97;6.67;;;16.50;99.90;;;;;;5079204;28;20462;-67
2021/10/27 16:03:07;;;;;;;13.03;9.30;;;16.40;99.90;;;;;;5092667;28;20466;-67
2021/10/27 16:05:39;;;;;;;12.63;10.10;;;16.40;99.90;;;;;;5092555;28;20531;-67
2021/10/27 16:08:06;;;;;;;8.20;6.67;;;16.40;99.90;;;;;;5092672;28;20481;-67
2021/10/27 16:10:35;;;;;;;5.90;5.40;;;16.40;99.90;;;;;;5092201;28;20473;-67
2021/10/27 16:13:02;;;;;;;5.70;5.07;;;16.40;99.90;;;;;;5092771;28;20807;-67
2021/10/27 16:15:37;;;;;;;6.20;5.00;;;16.40;99.90;;;;;;5092293;28;20473;-67
2021/10/27 16:18:06;;;;;;;9.27;6.23;;;16.40;99.90;;;;;;5092779;28;20544;-67
2021/10/27 16:20:33;;;;;;;7.93;6.73;;;16.40;99.90;;;;;;5091954;28;20473;-68
2021/10/27 16:23:01;;;;;;;8.00;6.30;;;16.40;99.90;;;;;;5092820;28;20465;-68
2021/10/27 16:25:31;;;;;;;9.07;7.67;;;16.30;99.90;;;;;;5092047;28;20477;-68
2021/10/27 16:27:58;;;;;;;7.17;5.97;;;16.40;99.90;;;;;;5092845;28;20461;-68
2021/10/27 16:30:25;;;;;;;6.53;5.50;;;16.30;99.90;;;;;;5092032;28;20480;-68